Wetterdaten: Oktober 2009
Datum Temp Feuchte Luftdruck Regen Wind Richtung Sonnenschein UV Solar Windben
01.10.2009 9,1 C 95 % 1013,2 hPa 3,6 l/m 4,1 km/h NW 0,08 h 1,0 UV-I 79 W/m 13,3 km/h
02.10.2009 7,9 C 96 % 1015,9 hPa 5,6 l/m 1,9 km/h W-NW 0,00 h 0,6 UV-I 50 W/m 4,8 km/h
03.10.2009 10,9 C 83 % 1008,5 hPa 0,0 l/m 15,9 km/h S 0,00 h 0,8 UV-I 75 W/m 31,0 km/h
04.10.2009 9,9 C 80 % 1010,1 hPa 3,2 l/m 7,2 km/h W 3,92 h 1,5 UV-I 209 W/m 18,1 km/h
05.10.2009 8,4 C 91 % 1014,6 hPa 2,0 l/m 4,3 km/h SO 2,17 h 1,2 UV-I 122 W/m 10,0 km/h
06.10.2009 13,5 C 98 % 1010,5 hPa 15,6 l/m 5,2 km/h S 0,25 h 0,9 UV-I 84 W/m 10,9 km/h
07.10.2009 17,2 C 92 % 1008,7 hPa 3,0 l/m 5,3 km/h S 0,83 h 1,0 UV-I 116 W/m 10,5 km/h
08.10.2009 9,6 C 94 % 1013,9 hPa 13,2 l/m 3,7 km/h S 0,73 h 1,0 UV-I 108 W/m 9,3 km/h
09.10.2009 6,6 C 85 % 1021,3 hPa 0,2 l/m 2,3 km/h SO 6,17 h 1,5 UV-I 249 W/m 6,0 km/h
10.10.2009 10,5 C 97 % 1011,8 hPa 20,8 l/m 6,0 km/h S-SO 0,00 h 0,7 UV-I 58 W/m 14,5 km/h
11.10.2009 9,8 C 96 % 1008,7 hPa 7,2 l/m 7,6 km/h NW 0,08 h 0,9 UV-I 73 W/m 20,1 km/h
12.10.2009 6,8 C 93 % 1018,1 hPa 4,6 l/m 9,7 km/h N-NW 1,58 h 1,0 UV-I 130 W/m 20,1 km/h
13.10.2009 4,2 C 94 % 1026,4 hPa 2,0 l/m 4,0 km/h N-NW 2,17 h 1,3 UV-I 155 W/m 8,1 km/h
14.10.2009 0,4 C 88 % 1029,9 hPa 0,2 l/m 1,4 km/h N-NW 3,00 h 1,2 UV-I 181 W/m 4,0 km/h
15.10.2009 3,6 C 78 % 1026,6 hPa 0,0 l/m 5,8 km/h N-NW 5,17 h 1,2 UV-I 222 W/m 10,9 km/h
16.10.2009 5,6 C 95 % 1017,2 hPa 14,2 l/m 7,9 km/h N-NW 0,52 h 1,0 UV-I 91 W/m 16,5 km/h
17.10.2009 5,0 C 93 % 1021,4 hPa 2,0 l/m 9,3 km/h N-NW 0,00 h 0,8 UV-I 69 W/m 19,3 km/h
18.10.2009 2,0 C 94 % 1022,5 hPa 0,0 l/m 1,5 km/h NW 3,92 h 1,2 UV-I 185 W/m 4,8 km/h
19.10.2009 3,4 C 89 % 1018,7 hPa 0,2 l/m 0,6 km/h S 2,33 h 0,9 UV-I 136 W/m 3,2 km/h
20.10.2009 4,3 C 79 % 1011,2 hPa 0,0 l/m 12,3 km/h SO 6,58 h 1,2 UV-I 230 W/m 23,4 km/h
21.10.2009 4,5 C 84 % 1007,3 hPa 0,0 l/m 8,9 km/h SO 2,17 h 0,9 UV-I 139 W/m 17,7 km/h
22.10.2009 5,6 C 89 % 1004,9 hPa 0,0 l/m 2,5 km/h SO 0,42 h 0,8 UV-I 103 W/m 5,6 km/h
23.10.2009 7,1 C 92 % 1012,9 hPa 0,0 l/m 0,7 km/h N-NW 0,58 h 0,8 UV-I 116 W/m 1,6 km/h
24.10.2009 8,9 C 91 % 1014,5 hPa 0,4 l/m 14,0 km/h S-SO 0,42 h 0,9 UV-I 104 W/m 25,3 km/h
25.10.2009 9,6 C 90 % 1014,2 hPa 1,6 l/m 6,0 km/h S 2,00 h 0,9 UV-I 140 W/m 11,7 km/h
26.10.2009 9,9 C 93 % 1015,8 hPa 5,0 l/m 8,6 km/h S 0,17 h 0,6 UV-I 65 W/m 18,1 km/h
27.10.2009 9,0 C 97 % 1022,4 hPa 3,8 l/m 2,3 km/h NW 0,00 h 0,6 UV-I 42 W/m 8,5 km/h
28.10.2009 7,6 C 93 % 1019,6 hPa 0,0 l/m 1,4 km/h S 1,08 h 0,9 UV-I 125 W/m 3,6 km/h
29.10.2009 9,3 C 98 % 1024,1 hPa 0,4 l/m 1,2 km/h S 0,00 h 0,5 UV-I 53 W/m 2,8 km/h
30.10.2009 7,3 C 94 % 1027,9 hPa 0,0 l/m 4,4 km/h SO 2,67 h 0,8 UV-I 130 W/m 11,3 km/h
31.10.2009 4,8 C 90 % 1025,1 hPa 0,0 l/m 8,1 km/h S-SO 3,25 h 0,8 UV-I 139 W/m 12,5 km/h
Min-Datum 15.10.09 04.10.09 22.10.09 21 Tage 01.10.09 - - - - 01.10.09
Min-Zeit 02:00 15:30 07:35 - 20:45 - - - - 20:45
Minimum -2,6 C 56 % 1002,5 hPa - 0,0 km/h - - - - 0,0 km/h
Max-Datum 07.10.09 06.10.09 14.10.09 10.10.09 16.10.09 - 20.10.09 07.10.09 09.10.09 16.10.09
Max-Zeit 12:55 12:40 11:10 19:55 13:35 - 16:55 12:50 13:50 10:55
Maximum 20,2 C 100 % 1030,8 hPa 20,8 l/m 30,3 km/h
N-NW
- 6,50 h 2,8 UV-I 714 W/m 54,7 km/h
N-NW
Durchschnitt 7,5 C 91 % 1016,7 hPa #108,8 l/m 5,6 km/h S #52:15 h 1,0 UV-I 122 W/m 12,2 km/h

Durchschnitt Minimum Temp.3,9 C
Durchschnitt Maximum Temp.11,1 C